sensor_id;sensor_type;location;lat;lon;timestamp;P1;durP1;ratioP1;P2;durP2;ratioP2
75894;SDS011;64573;50.328;15.014;2023-03-07T00:15:05;51.60;;;19.15;;
75894;SDS011;64573;50.328;15.014;2023-03-07T00:20:07;54.35;;;18.48;;
75894;SDS011;64573;50.328;15.014;2023-03-07T02:29:08;42.75;;;18.13;;
75894;SDS011;64573;50.328;15.014;2023-03-07T02:42:26;35.58;;;15.90;;
75894;SDS011;64573;50.328;15.014;2023-03-07T02:44:56;33.22;;;14.30;;
75894;SDS011;64573;50.328;15.014;2023-03-07T02:52:22;32.42;;;13.77;;
75894;SDS011;64573;50.328;15.014;2023-03-07T02:57:22;30.92;;;15.05;;
75894;SDS011;64573;50.328;15.014;2023-03-07T03:04:58;35.95;;;15.68;;
75894;SDS011;64573;50.328;15.014;2023-03-07T03:09:59;34.38;;;15.63;;
75894;SDS011;64573;50.328;15.014;2023-03-07T03:12:24;31.55;;;14.25;;
75894;SDS011;64573;50.328;15.014;2023-03-07T03:35:31;35.97;;;15.20;;
75894;SDS011;64573;50.328;15.014;2023-03-07T03:48:07;39.70;;;15.98;;
75894;SDS011;64573;50.328;15.014;2023-03-07T03:50:33;38.28;;;17.30;;
75894;SDS011;64573;50.328;15.014;2023-03-07T03:52:59;38.45;;;17.23;;
75894;SDS011;64573;50.328;15.014;2023-03-07T04:05:45;34.40;;;15.65;;
75894;SDS011;64573;50.328;15.014;2023-03-07T04:10:46;35.75;;;15.80;;
75894;SDS011;64573;50.328;15.014;2023-03-07T04:15:46;32.92;;;15.40;;
75894;SDS011;64573;50.328;15.014;2023-03-07T04:36:15;33.50;;;15.57;;
75894;SDS011;64573;50.328;15.014;2023-03-07T05:14:44;27.85;;;12.68;;
75894;SDS011;64573;50.328;15.014;2023-03-07T05:45:26;22.35;;;11.13;;
75894;SDS011;64573;50.328;15.014;2023-03-07T08:35:58;15.50;;;7.50;;
75894;SDS011;64573;50.328;15.014;2023-03-07T09:27:31;17.25;;;7.45;;
75894;SDS011;64573;50.328;15.014;2023-03-07T09:29:57;13.55;;;6.65;;
75894;SDS011;64573;50.328;15.014;2023-03-07T12:31:10;7.05;;;4.85;;
75894;SDS011;64573;50.328;15.014;2023-03-07T12:36:05;6.80;;;4.38;;
75894;SDS011;64573;50.328;15.014;2023-03-07T13:06:48;7.60;;;5.00;;
75894;SDS011;64573;50.328;15.014;2023-03-07T13:09:17;9.45;;;5.47;;
75894;SDS011;64573;50.328;15.014;2023-03-07T13:34:47;7.95;;;4.05;;
75894;SDS011;64573;50.328;15.014;2023-03-07T13:42:45;6.93;;;4.22;;
75894;SDS011;64573;50.328;15.014;2023-03-07T14:05:40;7.32;;;4.43;;
75894;SDS011;64573;50.328;15.014;2023-03-07T14:08:07;7.38;;;3.97;;
75894;SDS011;64573;50.328;15.014;2023-03-07T14:31:15;6.35;;;3.63;;
75894;SDS011;64573;50.328;15.014;2023-03-07T14:48:51;6.03;;;3.33;;
75894;SDS011;64573;50.328;15.014;2023-03-07T14:58:53;6.25;;;3.70;;
75894;SDS011;64573;50.328;15.014;2023-03-07T15:06:40;7.03;;;3.95;;
75894;SDS011;64573;50.328;15.014;2023-03-07T15:11:43;6.80;;;4.20;;
75894;SDS011;64573;50.328;15.014;2023-03-07T15:16:49;9.35;;;4.45;;
75894;SDS011;64573;50.328;15.014;2023-03-07T15:21:51;9.95;;;5.70;;
75894;SDS011;64573;50.328;15.014;2023-03-07T15:29:23;7.95;;;4.30;;
75894;SDS011;64573;50.328;15.014;2023-03-07T15:57:16;13.60;;;6.25;;
75894;SDS011;64573;50.328;15.014;2023-03-07T15:59:46;11.88;;;5.30;;
75894;SDS011;64573;50.328;15.014;2023-03-07T16:19:57;8.50;;;4.68;;
75894;SDS011;64573;50.328;15.014;2023-03-07T16:22:23;8.68;;;4.60;;
75894;SDS011;64573;50.328;15.014;2023-03-07T16:37:38;18.45;;;9.55;;
75894;SDS011;64573;50.328;15.014;2023-03-07T16:42:40;26.23;;;13.25;;
75894;SDS011;64573;50.328;15.014;2023-03-07T16:47:45;14.27;;;8.70;;
75894;SDS011;64573;50.328;15.014;2023-03-07T16:52:47;9.90;;;6.05;;
75894;SDS011;64573;50.328;15.014;2023-03-07T16:57:49;12.35;;;7.20;;
75894;SDS011;64573;50.328;15.014;2023-03-07T17:08:09;11.13;;;6.60;;
75894;SDS011;64573;50.328;15.014;2023-03-07T17:10:35;7.93;;;5.07;;
75894;SDS011;64573;50.328;15.014;2023-03-07T17:28:27;13.35;;;7.07;;
75894;SDS011;64573;50.328;15.014;2023-03-07T17:36:02;9.23;;;5.20;;
75894;SDS011;64573;50.328;15.014;2023-03-07T17:38:28;9.35;;;5.22;;
75894;SDS011;64573;50.328;15.014;2023-03-07T17:56:14;9.32;;;5.65;;
75894;SDS011;64573;50.328;15.014;2023-03-07T18:06:11;10.10;;;5.32;;
75894;SDS011;64573;50.328;15.014;2023-03-07T18:08:37;13.93;;;5.30;;
75894;SDS011;64573;50.328;15.014;2023-03-07T18:11:07;11.32;;;6.60;;
75894;SDS011;64573;50.328;15.014;2023-03-07T18:13:34;9.98;;;5.75;;
75894;SDS011;64573;50.328;15.014;2023-03-07T18:16:00;10.48;;;5.75;;
75894;SDS011;64573;50.328;15.014;2023-03-07T18:18:28;12.85;;;6.85;;
75894;SDS011;64573;50.328;15.014;2023-03-07T18:23:30;12.30;;;5.95;;
75894;SDS011;64573;50.328;15.014;2023-03-07T18:28:21;12.80;;;5.70;;
75894;SDS011;64573;50.328;15.014;2023-03-07T18:30:47;13.00;;;6.95;;
75894;SDS011;64573;50.328;15.014;2023-03-07T18:33:12;12.25;;;6.38;;
75894;SDS011;64573;50.328;15.014;2023-03-07T18:35:37;17.38;;;7.53;;
75894;SDS011;64573;50.328;15.014;2023-03-07T18:40:32;14.27;;;6.93;;
75894;SDS011;64573;50.328;15.014;2023-03-07T18:42:57;12.32;;;6.13;;
75894;SDS011;64573;50.328;15.014;2023-03-07T18:45:24;13.57;;;6.72;;
75894;SDS011;64573;50.328;15.014;2023-03-07T18:47:50;9.20;;;5.07;;
75894;SDS011;64573;50.328;15.014;2023-03-07T18:50:15;9.98;;;5.43;;
75894;SDS011;64573;50.328;15.014;2023-03-07T18:52:41;17.48;;;5.82;;
75894;SDS011;64573;50.328;15.014;2023-03-07T18:55:07;10.55;;;5.65;;
75894;SDS011;64573;50.328;15.014;2023-03-07T18:57:33;12.43;;;5.65;;
75894;SDS011;64573;50.328;15.014;2023-03-07T18:59:59;10.15;;;5.55;;
75894;SDS011;64573;50.328;15.014;2023-03-07T19:02:24;13.93;;;6.15;;
75894;SDS011;64573;50.328;15.014;2023-03-07T19:04:51;8.43;;;4.63;;
75894;SDS011;64573;50.328;15.014;2023-03-07T19:07:17;14.65;;;8.60;;
75894;SDS011;64573;50.328;15.014;2023-03-07T19:09:43;8.90;;;5.03;;
75894;SDS011;64573;50.328;15.014;2023-03-07T19:12:10;12.45;;;6.32;;
75894;SDS011;64573;50.328;15.014;2023-03-07T19:14:36;12.32;;;6.68;;
75894;SDS011;64573;50.328;15.014;2023-03-07T19:19:27;14.07;;;7.13;;
75894;SDS011;64573;50.328;15.014;2023-03-07T19:24:20;11.40;;;5.70;;
75894;SDS011;64573;50.328;15.014;2023-03-07T19:26:45;12.50;;;6.70;;
75894;SDS011;64573;50.328;15.014;2023-03-07T19:29:12;13.38;;;7.00;;
75894;SDS011;64573;50.328;15.014;2023-03-07T19:34:03;12.52;;;7.30;;
75894;SDS011;64573;50.328;15.014;2023-03-07T19:36:31;17.00;;;9.85;;
75894;SDS011;64573;50.328;15.014;2023-03-07T19:38:59;11.55;;;5.68;;
75894;SDS011;64573;50.328;15.014;2023-03-07T19:43:50;12.75;;;6.13;;
75894;SDS011;64573;50.328;15.014;2023-03-07T19:46:17;9.82;;;5.63;;
75894;SDS011;64573;50.328;15.014;2023-03-07T19:48:43;11.15;;;5.65;;
75894;SDS011;64573;50.328;15.014;2023-03-07T19:53:34;11.57;;;6.47;;
75894;SDS011;64573;50.328;15.014;2023-03-07T19:56:06;12.90;;;6.63;;
75894;SDS011;64573;50.328;15.014;2023-03-07T19:58:34;10.13;;;5.07;;
75894;SDS011;64573;50.328;15.014;2023-03-07T20:01:05;9.52;;;5.22;;
75894;SDS011;64573;50.328;15.014;2023-03-07T20:03:32;14.95;;;6.80;;
75894;SDS011;64573;50.328;15.014;2023-03-07T20:08:23;12.82;;;6.82;;
75894;SDS011;64573;50.328;15.014;2023-03-07T20:10:48;14.55;;;6.32;;
75894;SDS011;64573;50.328;15.014;2023-03-07T20:13:14;10.48;;;5.90;;
75894;SDS011;64573;50.328;15.014;2023-03-07T20:15:48;10.73;;;5.63;;
75894;SDS011;64573;50.328;15.014;2023-03-07T20:18:15;9.15;;;4.85;;
75894;SDS011;64573;50.328;15.014;2023-03-07T20:20:41;13.20;;;6.38;;
75894;SDS011;64573;50.328;15.014;2023-03-07T20:23:06;12.02;;;6.40;;
75894;SDS011;64573;50.328;15.014;2023-03-07T20:25:31;11.82;;;5.38;;
75894;SDS011;64573;50.328;15.014;2023-03-07T20:27:57;9.80;;;5.13;;
75894;SDS011;64573;50.328;15.014;2023-03-07T20:30:22;12.30;;;5.45;;
75894;SDS011;64573;50.328;15.014;2023-03-07T20:32:47;15.50;;;7.18;;
75894;SDS011;64573;50.328;15.014;2023-03-07T20:35:13;15.80;;;8.32;;
75894;SDS011;64573;50.328;15.014;2023-03-07T20:37:38;16.83;;;9.68;;
75894;SDS011;64573;50.328;15.014;2023-03-07T20:40:04;17.38;;;10.63;;
75894;SDS011;64573;50.328;15.014;2023-03-07T20:42:32;16.35;;;9.15;;
75894;SDS011;64573;50.328;15.014;2023-03-07T20:44:58;15.30;;;8.55;;
75894;SDS011;64573;50.328;15.014;2023-03-07T20:47:24;13.25;;;7.80;;
75894;SDS011;64573;50.328;15.014;2023-03-07T20:49:51;20.63;;;11.50;;
75894;SDS011;64573;50.328;15.014;2023-03-07T20:52:17;16.25;;;9.90;;
75894;SDS011;64573;50.328;15.014;2023-03-07T20:54:42;16.52;;;9.02;;
75894;SDS011;64573;50.328;15.014;2023-03-07T20:57:08;18.60;;;9.35;;
75894;SDS011;64573;50.328;15.014;2023-03-07T20:59:33;16.05;;;7.57;;
75894;SDS011;64573;50.328;15.014;2023-03-07T21:01:59;18.27;;;9.73;;
75894;SDS011;64573;50.328;15.014;2023-03-07T21:04:24;16.05;;;8.98;;
75894;SDS011;64573;50.328;15.014;2023-03-07T21:06:49;16.80;;;7.88;;
75894;SDS011;64573;50.328;15.014;2023-03-07T21:09:16;13.52;;;7.90;;
75894;SDS011;64573;50.328;15.014;2023-03-07T21:11:43;17.17;;;9.95;;
75894;SDS011;64573;50.328;15.014;2023-03-07T21:14:10;13.00;;;7.93;;
75894;SDS011;64573;50.328;15.014;2023-03-07T21:16:35;13.48;;;7.10;;
75894;SDS011;64573;50.328;15.014;2023-03-07T21:19:02;15.10;;;6.43;;
75894;SDS011;64573;50.328;15.014;2023-03-07T21:21:29;9.20;;;5.32;;
75894;SDS011;64573;50.328;15.014;2023-03-07T21:23:55;13.77;;;7.10;;
75894;SDS011;64573;50.328;15.014;2023-03-07T21:26:22;13.05;;;7.63;;
75894;SDS011;64573;50.328;15.014;2023-03-07T21:28:55;12.52;;;6.95;;
75894;SDS011;64573;50.328;15.014;2023-03-07T21:31:22;13.48;;;6.60;;
75894;SDS011;64573;50.328;15.014;2023-03-07T21:33:50;11.45;;;6.28;;
75894;SDS011;64573;50.328;15.014;2023-03-07T21:36:18;10.95;;;6.10;;
75894;SDS011;64573;50.328;15.014;2023-03-07T21:38:44;12.52;;;6.35;;
75894;SDS011;64573;50.328;15.014;2023-03-07T21:41:10;15.05;;;6.78;;
75894;SDS011;64573;50.328;15.014;2023-03-07T21:43:36;13.57;;;6.18;;
75894;SDS011;64573;50.328;15.014;2023-03-07T21:46:09;11.50;;;6.53;;
75894;SDS011;64573;50.328;15.014;2023-03-07T21:48:36;11.70;;;5.72;;
75894;SDS011;64573;50.328;15.014;2023-03-07T21:51:02;10.45;;;5.20;;
75894;SDS011;64573;50.328;15.014;2023-03-07T21:53:28;11.77;;;5.85;;
75894;SDS011;64573;50.328;15.014;2023-03-07T21:55:54;11.82;;;5.40;;
75894;SDS011;64573;50.328;15.014;2023-03-07T21:58:25;11.18;;;5.85;;
75894;SDS011;64573;50.328;15.014;2023-03-07T22:03:21;9.52;;;4.32;;
75894;SDS011;64573;50.328;15.014;2023-03-07T22:05:47;11.82;;;5.65;;
75894;SDS011;64573;50.328;15.014;2023-03-07T22:08:13;10.63;;;5.18;;
75894;SDS011;64573;50.328;15.014;2023-03-07T22:10:40;14.75;;;7.05;;
75894;SDS011;64573;50.328;15.014;2023-03-07T22:13:05;15.68;;;7.53;;
75894;SDS011;64573;50.328;15.014;2023-03-07T22:15:30;15.15;;;6.78;;
75894;SDS011;64573;50.328;15.014;2023-03-07T22:17:56;11.45;;;5.78;;
75894;SDS011;64573;50.328;15.014;2023-03-07T22:20:21;12.30;;;5.38;;
75894;SDS011;64573;50.328;15.014;2023-03-07T22:22:47;11.55;;;5.88;;
75894;SDS011;64573;50.328;15.014;2023-03-07T22:25:12;12.52;;;5.80;;
75894;SDS011;64573;50.328;15.014;2023-03-07T22:27:37;16.38;;;5.10;;
75894;SDS011;64573;50.328;15.014;2023-03-07T22:30:03;8.65;;;4.68;;
75894;SDS011;64573;50.328;15.014;2023-03-07T22:32:30;10.25;;;5.30;;
75894;SDS011;64573;50.328;15.014;2023-03-07T22:34:56;10.02;;;5.00;;
75894;SDS011;64573;50.328;15.014;2023-03-07T22:37:21;9.55;;;5.07;;
75894;SDS011;64573;50.328;15.014;2023-03-07T22:39:46;8.60;;;4.70;;
75894;SDS011;64573;50.328;15.014;2023-03-07T22:42:14;7.50;;;4.18;;
75894;SDS011;64573;50.328;15.014;2023-03-07T22:44:40;8.60;;;4.60;;
75894;SDS011;64573;50.328;15.014;2023-03-07T22:47:05;9.88;;;5.53;;
75894;SDS011;64573;50.328;15.014;2023-03-07T22:49:31;11.15;;;4.82;;
75894;SDS011;64573;50.328;15.014;2023-03-07T22:51:56;9.63;;;4.97;;
75894;SDS011;64573;50.328;15.014;2023-03-07T22:54:22;9.82;;;5.00;;
75894;SDS011;64573;50.328;15.014;2023-03-07T22:56:47;11.30;;;4.47;;
75894;SDS011;64573;50.328;15.014;2023-03-07T22:59:13;10.60;;;5.28;;
75894;SDS011;64573;50.328;15.014;2023-03-07T23:01:38;9.63;;;4.93;;
75894;SDS011;64573;50.328;15.014;2023-03-07T23:04:04;8.25;;;4.22;;
75894;SDS011;64573;50.328;15.014;2023-03-07T23:06:31;10.85;;;5.15;;
75894;SDS011;64573;50.328;15.014;2023-03-07T23:08:57;9.35;;;4.40;;
75894;SDS011;64573;50.328;15.014;2023-03-07T23:11:23;12.32;;;3.80;;
75894;SDS011;64573;50.328;15.014;2023-03-07T23:13:50;6.55;;;3.90;;
75894;SDS011;64573;50.328;15.014;2023-03-07T23:16:17;9.32;;;4.43;;
75894;SDS011;64573;50.328;15.014;2023-03-07T23:18:45;8.20;;;4.07;;
75894;SDS011;64573;50.328;15.014;2023-03-07T23:21:12;6.88;;;3.60;;
75894;SDS011;64573;50.328;15.014;2023-03-07T23:23:39;7.30;;;4.50;;
75894;SDS011;64573;50.328;15.014;2023-03-07T23:26:05;9.20;;;4.30;;
75894;SDS011;64573;50.328;15.014;2023-03-07T23:28:31;7.93;;;4.85;;
75894;SDS011;64573;50.328;15.014;2023-03-07T23:30:57;8.00;;;4.20;;
75894;SDS011;64573;50.328;15.014;2023-03-07T23:33:22;8.48;;;3.78;;
75894;SDS011;64573;50.328;15.014;2023-03-07T23:35:48;9.82;;;5.03;;
75894;SDS011;64573;50.328;15.014;2023-03-07T23:38:13;7.13;;;3.83;;
75894;SDS011;64573;50.328;15.014;2023-03-07T23:40:39;7.20;;;3.63;;
75894;SDS011;64573;50.328;15.014;2023-03-07T23:43:06;7.13;;;4.32;;
75894;SDS011;64573;50.328;15.014;2023-03-07T23:45:32;9.35;;;4.88;;
75894;SDS011;64573;50.328;15.014;2023-03-07T23:47:57;10.15;;;4.82;;
75894;SDS011;64573;50.328;15.014;2023-03-07T23:50:23;6.82;;;4.05;;
75894;SDS011;64573;50.328;15.014;2023-03-07T23:52:49;8.52;;;4.50;;
75894;SDS011;64573;50.328;15.014;2023-03-07T23:55:14;9.23;;;4.82;;
75894;SDS011;64573;50.328;15.014;2023-03-07T23:57:40;8.68;;;3.85;;
